Snow/Ice From: 16-12-2017 16:00 Until: 17-12-2017 16:00 warning for: Snow/Ice Level: Yellow info button

Although rather usual in this region, locally or potentially dangerous phenomena are expected. (such as local winds, summer thunderstorms, rising streams or high waves) Be aware and pay attention to the latest weather updates, especially if you carry out activities exposed to weather or close to a stream or shoreline. 


Meteo18 Weather Cam more information Meteo18 Weather Cam


Thunder radar more information blitzortung!


warning for Snow/Ice more information rain snow radar


Visit our other weather sites:

Template documentation
and downloads

And another site



Weather Underground History page Text

Daily Summary for August 31, 2017 Units:  English    Metric   Both
« Previous Day
Next Day »
Daily Weekly Monthly Yearly Custom
  High: Low: Average:
Temperature: 68.4 °F 53.1 °F 59.4 °F
Dew Point: 57.7 °F 47.8 °F 50.9 °F
Humidity: 94 % 49 % 76 %
Wind Speed: 10 mph 0 mph 2.7 mph
Wind Gust: 16 mph - -
Wind:- - WSW
Pressure: 30.2 in 30 in -
Precipitation: 0 in    
Historical Graphs
 
 
Tabular Data for August 31, 2017
Time Temperature Dew Point Pressure Wind Wind Speed Wind Gust Humidity Rainfall Rate (Hourly)
00:02 60.4 °F 57.7 °F 30 in WNW 5 mph 9 mph 91 % 0 in
00:12 59.9 °F 57.6 °F 30 in WNW 5 mph 11 mph 92 % 0 in
00:17 59.7 °F 57.4 °F 30 in NNW 7 mph 11 mph 92 % 0 in
00:22 59.5 °F 57.2 °F 30 in NW 6 mph 11 mph 92 % 0 in
00:32 59.4 °F 56.7 °F 30 in NW 7 mph 10 mph 91 % 0 in
00:42 59.4 °F 56.7 °F 30 in WNW 3 mph 11 mph 91 % 0 in
00:52 59.2 °F 56.5 °F 30 in West 3 mph 11 mph 91 % 0 in
00:57 59.2 °F 56.8 °F 30 in NNW 4 mph 11 mph 92 % 0 in
01:02 59.2 °F 56.8 °F 30 in NNW 6 mph 11 mph 92 % 0 in
01:07 59 °F 56.7 °F 30 in WNW 10 mph 10 mph 92 % 0 in
01:12 58.5 °F 56.1 °F 30 in WNW 5 mph 8 mph 92 % 0 in
01:17 58.1 °F 55.8 °F 30 in WNW 5 mph 11 mph 92 % 0 in
01:22 57.7 °F 55.4 °F 30 in NNW 3 mph 11 mph 92 % 0 in
01:32 57.4 °F 55 °F 30 in North 6 mph 11 mph 92 % 0 in
01:42 57 °F 54.7 °F 30 in NNW 10 mph 10 mph 92 % 0 in
01:47 57 °F 54.7 °F 30 in WNW 8 mph 15 mph 92 % 0 in
01:52 57 °F 54.7 °F 30 in West 6 mph 15 mph 92 % 0 in
01:57 57 °F 54.7 °F 30 in NNW 10 mph 15 mph 92 % 0 in
02:02 57 °F 54.7 °F 30 in NW 9 mph 12 mph 92 % 0 in
02:12 56.8 °F 54.5 °F 30 in NW 3 mph 12 mph 92 % 0 in
02:17 56.7 °F 54.7 °F 30 in West 8 mph 12 mph 93 % 0 in
02:22 56.7 °F 54.7 °F 30 in NW 3 mph 11 mph 93 % 0 in
02:32 56.7 °F 54.7 °F 30 in NNW 7 mph 11 mph 93 % 0 in
02:42 56.7 °F 54.7 °F 30 in WNW 4 mph 12 mph 93 % 0 in
02:47 56.5 °F 54.5 °F 30 in NW 4 mph 12 mph 93 % 0 in
02:52 56.3 °F 54.3 °F 30 in NNW 5 mph 7 mph 93 % 0 in
02:57 56.1 °F 54.1 °F 30 in NW 3 mph 7 mph 93 % 0 in
03:02 56.1 °F 54.5 °F 30 in West 3 mph 9 mph 94 % 0 in
03:12 55.9 °F 54 °F 30 in WNW 5 mph 9 mph 93 % 0 in
03:17 55.8 °F 53.8 °F 30 in NW 2 mph 14 mph 93 % 0 in
03:22 55.6 °F 53.6 °F 30 in WNW 6 mph 16 mph 93 % 0 in
03:27 55.6 °F 53.6 °F 30 in WNW 4 mph 16 mph 93 % 0 in
03:32 55.4 °F 53.4 °F 30 in West 2 mph 16 mph 93 % 0 in
03:42 55.4 °F 53.4 °F 30 in NW 2 mph 11 mph 93 % 0 in
03:52 55 °F 52.7 °F 30 in NW 5 mph 12 mph 92 % 0 in
03:57 54.7 °F 52.3 °F 30 in NNW 3 mph 11 mph 92 % 0 in
04:02 54.5 °F 52 °F 30 in North 2 mph 12 mph 91 % 0 in
04:12 54.7 °F 51.8 °F 30 in NNE 7 mph 12 mph 90 % 0 in
04:17 54.5 °F 52 °F 30 in WSW 3 mph 12 mph 91 % 0 in
04:22 54.5 °F 52.2 °F 30.1 in NNW 3 mph 12 mph 92 % 0 in
04:32 54.3 °F 52 °F 30.1 in WNW 3 mph 11 mph 92 % 0 in
04:37 54.3 °F 52 °F 30.1 in NNW 3 mph 11 mph 92 % 0 in
04:42 54.3 °F 51.8 °F 30.1 in NW 3 mph 11 mph 91 % 0 in
04:47 54.3 °F 51.8 °F 30.1 in NW 5 mph 10 mph 91 % 0 in
04:52 54.3 °F 51.8 °F 30.1 in NW 9 mph 11 mph 91 % 0 in
04:57 54.1 °F 51.6 °F 30.1 in NNW 3 mph 11 mph 91 % 0 in
05:02 54.3 °F 52 °F 30.1 in NNW 2 mph 11 mph 92 % 0 in
05:12 54.1 °F 51.8 °F 30.1 in NW 3 mph 10 mph 92 % 0 in
05:22 54.3 °F 52 °F 30.1 in NW 3 mph 7 mph 92 % 0 in
05:32 54.3 °F 52 °F 30.1 in North 2 mph 7 mph 92 % 0 in
05:42 54.3 °F 52 °F 30.1 in NW 2 mph 6 mph 92 % 0 in
05:52 54.1 °F 51.8 °F 30.1 in NW 1 mph 7 mph 92 % 0 in
06:02 54 °F 51.4 °F 30.1 in NW 4 mph 11 mph 91 % 0 in
06:12 53.8 °F 51.3 °F 30.1 in NNW 2 mph 11 mph 91 % 0 in
06:17 53.6 °F 51.1 °F 30.1 in NW 2 mph 11 mph 91 % 0 in
06:22 53.6 °F 51.1 °F 30.1 in NW 2 mph 11 mph 91 % 0 in
06:32 53.4 °F 50.9 °F 30.1 in NNW 3 mph 7 mph 91 % 0 in
06:37 53.4 °F 50.5 °F 30.1 in WNW 3 mph 7 mph 90 % 0 in
06:42 53.4 °F 50.5 °F 30.1 in NNW 3 mph 9 mph 90 % 0 in
06:52 53.2 °F 50.4 °F 30.1 in WNW 3 mph 9 mph 90 % 0 in
06:57 53.2 °F 50.4 °F 30.1 in NW 7 mph 9 mph 90 % 0 in
07:02 53.2 °F 50.4 °F 30.1 in NNE 2 mph 9 mph 90 % 0 in
07:12 53.1 °F 50.5 °F 30.1 in WNW 3 mph 8 mph 91 % 0 in
07:17 53.1 °F 50.5 °F 30.1 in NW 4 mph 8 mph 91 % 0 in
07:22 53.1 °F 50.2 °F 30.1 in NNW 2 mph 6 mph 90 % 0 in
07:32 53.1 °F 50.2 °F 30.1 in WNW 8 mph 8 mph 90 % 0 in
07:37 53.1 °F 50.2 °F 30.1 in NW 4 mph 8 mph 90 % 0 in
07:42 53.1 °F 50.2 °F 30.1 in West 5 mph 8 mph 90 % 0 in
07:52 53.1 °F 49.8 °F 30.1 in WNW 3 mph 6 mph 89 % 0 in
07:57 53.1 °F 49.8 °F 30.1 in WNW 3 mph 6 mph 89 % 0 in
08:02 53.1 °F 49.8 °F 30.1 in WNW 2 mph 8 mph 89 % 0 in
08:12 53.1 °F 49.8 °F 30.1 in NW 5 mph 6 mph 89 % 0 in
08:17 53.1 °F 49.8 °F 30.1 in NW 2 mph 6 mph 89 % 0 in
08:22 53.1 °F 49.8 °F 30.1 in NW 1 mph 7 mph 89 % 0 in
08:32 53.1 °F 49.8 °F 30.1 in WSW 1 mph 9 mph 89 % 0 in
08:37 53.1 °F 49.8 °F 30.2 in NW 2 mph 9 mph 89 % 0 in
08:42 53.2 °F 50 °F 30.2 in WNW 1 mph 7 mph 89 % 0 in
08:52 53.6 °F 50.4 °F 30.2 in WNW 3 mph 5 mph 89 % 0 in
08:57 53.6 °F 50.4 °F 30.2 in West 2 mph 5 mph 89 % 0 in
09:02 53.8 °F 50.5 °F 30.2 in WNW 4 mph 8 mph 89 % 0 in
09:12 54.3 °F 50.5 °F 30.2 in NW 1 mph 8 mph 87 % 0 in
09:22 54.5 °F 50.4 °F 30.2 in WNW 6 mph 9 mph 86 % 0 in
09:32 54.7 °F 50.9 °F 30.2 in WNW 1 mph 9 mph 87 % 0 in
09:37 54.9 °F 50.7 °F 30.2 in West 4 mph 9 mph 86 % 0 in
09:42 54.9 °F 50.4 °F 30.2 in NNW 3 mph 9 mph 85 % 0 in
09:52 55.9 °F 51.4 °F 30.2 in NNW 8 mph 8 mph 85 % 0 in
10:02 55.9 °F 50.5 °F 30.2 in NW 2 mph 8 mph 82 % 0 in
10:07 55.8 °F 50.7 °F 30.2 in NW 1 mph 8 mph 83 % 0 in
10:12 55.8 °F 50.7 °F 30.2 in WNW 3 mph 9 mph 83 % 0 in
10:17 55.8 °F 50.7 °F 30.2 in WNW 5 mph 9 mph 83 % 0 in
10:22 56.1 °F 51.1 °F 30.2 in NNW 2 mph 9 mph 83 % 0 in
10:32 57.2 °F 51.1 °F 30.2 in NW 1 mph 9 mph 80 % 0 in
10:37 57.2 °F 51.1 °F 30.2 in WNW 2 mph 9 mph 80 % 0 in
10:42 56.7 °F 50.9 °F 30.2 in NW 1 mph 9 mph 81 % 0 in
10:52 57.2 °F 50.7 °F 30.2 in North 3 mph 9 mph 79 % 0 in
10:57 57.4 °F 51.3 °F 30.2 in NNW 3 mph 9 mph 80 % 0 in
11:02 57.9 °F 51.1 °F 30.2 in NE 4 mph 7 mph 78 % 0 in
11:12 58.5 °F 50.5 °F 30.2 in WNW 3 mph 8 mph 75 % 0 in
11:22 58.5 °F 50.5 °F 30.2 in NW 2 mph 8 mph 75 % 0 in
11:32 59.4 °F 51.1 °F 30.2 in NNW 4 mph 7 mph 74 % 0 in
11:42 59.5 °F 50.5 °F 30.2 in WNW 4 mph 9 mph 72 % 0 in
11:52 60.4 °F 51.4 °F 30.2 in NW 5 mph 8 mph 72 % 0 in
11:57 60.4 °F 50.5 °F 30.2 in WNW 3 mph 8 mph 70 % 0 in
12:02 60.8 °F 50.5 °F 30.2 in NNW 5 mph 10 mph 69 % 0 in
12:12 61.3 °F 50.7 °F 30.2 in NNE 6 mph 10 mph 68 % 0 in
12:17 61.5 °F 50 °F 30.2 in NE 6 mph 11 mph 66 % 0 in
12:22 61.9 °F 50 °F 30.2 in NNW 5 mph 11 mph 65 % 0 in
12:32 61.5 °F 49.6 °F 30.2 in WNW 3 mph 8 mph 65 % 0 in
12:42 61.9 °F 50 °F 30.2 in NE 4 mph 8 mph 65 % 0 in
12:47 62.2 °F 50 °F 30.2 in NE 4 mph 8 mph 64 % 0 in
12:52 62.8 °F 49.6 °F 30.2 in NW 2 mph 9 mph 62 % 0 in
12:57 63.1 °F 49.8 °F 30.2 in North 4 mph 9 mph 62 % 0 in
13:02 63.3 °F 49.6 °F 30.2 in West 2 mph 9 mph 61 % 0 in
13:12 63.1 °F 48.6 °F 30.2 in WNW 5 mph 10 mph 59 % 0 in
13:17 63.1 °F 49.1 °F 30.2 in South 1 mph 7 mph 60 % 0 in
13:22 63.3 °F 48.7 °F 30.2 in WNW 1 mph 7 mph 59 % 0 in
13:32 64.6 °F 48.9 °F 30.2 in NE 3 mph 7 mph 57 % 0 in
13:42 64.8 °F 49.1 °F 30.2 in NNE 1 mph 8 mph 57 % 0 in
13:47 65.1 °F 49.5 °F 30.2 in NNE 6 mph 7 mph 57 % 0 in
13:57 65.3 °F 49.3 °F 30.2 in Calm   8 mph 56 % 0 in
14:02 65.7 °F 49.5 °F 30.2 in WNW 2 mph 8 mph 56 % 0 in
14:07 65.5 °F 48.9 °F 30.2 in West 1 mph 9 mph 55 % 0 in
14:12 65.5 °F 49.3 °F 30.2 in NNE 4 mph 9 mph 56 % 0 in
14:17 65.1 °F 49.1 °F 30.2 in North 4 mph 11 mph 56 % 0 in
14:22 65.3 °F 48.7 °F 30.2 in NNW 3 mph 11 mph 55 % 0 in
14:32 65.8 °F 48.2 °F 30.2 in Calm   8 mph 53 % 0 in
14:42 65.5 °F 47.8 °F 30.2 in NW 2 mph 6 mph 53 % 0 in
14:47 65.7 °F 48.6 °F 30.2 in NNE 5 mph 6 mph 54 % 0 in
14:52 66.4 °F 48.7 °F 30.2 in Calm   6 mph 53 % 0 in
15:02 67.5 °F 49.3 °F 30.2 in North 7 mph 8 mph 52 % 0 in
15:12 66 °F 47.8 °F 30.2 in ENE 4 mph 8 mph 52 % 0 in
15:17 66 °F 48.4 °F 30.2 in NNW 3 mph 14 mph 53 % 0 in
15:22 66 °F 48.4 °F 30.2 in NNE 6 mph 14 mph 53 % 0 in
15:32 65.8 °F 48.7 °F 30.2 in NW 2 mph 7 mph 54 % 0 in
15:42 66 °F 48.4 °F 30.2 in NNW 2 mph 7 mph 53 % 0 in
15:52 66 °F 48.4 °F 30.2 in North 3 mph 6 mph 53 % 0 in
16:02 66.4 °F 48.2 °F 30.2 in WNW 2 mph 7 mph 52 % 0 in
16:12 66.4 °F 48.2 °F 30.2 in NNE 3 mph 7 mph 52 % 0 in
16:17 66.4 °F 49.3 °F 30.2 in WNW 5 mph 7 mph 54 % 0 in
16:22 66.2 °F 49.1 °F 30.2 in NNE 2 mph 6 mph 54 % 0 in
16:27 66.4 °F 48.7 °F 30.2 in NW 2 mph 6 mph 53 % 0 in
16:32 66.4 °F 48.7 °F 30.2 in WNW 3 mph 6 mph 53 % 0 in
16:42 66 °F 48.9 °F 30.2 in WNW 1 mph 7 mph 54 % 0 in
16:47 66.7 °F 49.1 °F 30.2 in North 1 mph 7 mph 53 % 0 in
16:52 66.9 °F 49.3 °F 30.2 in North 5 mph 6 mph 53 % 0 in
16:57 67.5 °F 49.8 °F 30.2 in NNE 1 mph 7 mph 53 % 0 in
17:02 68 °F 49.3 °F 30.2 in WNW 2 mph 7 mph 51 % 0 in
17:12 68.2 °F 48.9 °F 30.2 in NW 3 mph 6 mph 50 % 0 in
17:17 68.4 °F 49.5 °F 30.2 in Calm   6 mph 51 % 0 in
17:22 68.4 °F 48.4 °F 30.2 in Calm   5 mph 49 % 0 in
17:32 68.2 °F 48.9 °F 30.2 in SW 2 mph 5 mph 50 % 0 in
17:42 68.2 °F 48.9 °F 30.2 in NE 2 mph 4 mph 50 % 0 in
17:52 67.6 °F 48.4 °F 30.2 in Calm   7 mph 50 % 0 in
17:57 67.8 °F 49.1 °F 30.2 in NNW 3 mph 8 mph 51 % 0 in
18:02 68.4 °F 48.4 °F 30.2 in Calm   8 mph 49 % 0 in
18:12 68.2 °F 48.4 °F 30.2 in NNE 5 mph 5 mph 49 % 0 in
18:17 67.6 °F 48.4 °F 30.2 in North 1 mph 7 mph 50 % 0 in
18:22 67.5 °F 48.2 °F 30.2 in NE 3 mph 7 mph 50 % 0 in
18:32 67.1 °F 48.4 °F 30.2 in North 1 mph 7 mph 51 % 0 in
18:42 67.1 °F 48.4 °F 30.2 in ENE 1 mph 5 mph 51 % 0 in
18:52 66.7 °F 49.1 °F 30.2 in ENE 3 mph 3 mph 53 % 0 in
19:02 66.9 °F 49.3 °F 30.2 in Calm   5 mph 53 % 0 in
19:12 66.6 °F 49.8 °F 30.2 in Calm   5 mph 55 % 0 in
19:17 66.6 °F 49.5 °F 30.2 in Calm   4 mph 54 % 0 in
19:22 66.4 °F 49.3 °F 30.2 in ESE 2 mph 4 mph 54 % 0 in
19:32 65.8 °F 49.3 °F 30.2 in Calm   3 mph 55 % 0 in
19:37 65.8 °F 49.3 °F 30.2 in Calm   4 mph 55 % 0 in
19:42 66 °F 49.5 °F 30.2 in East 1 mph 4 mph 55 % 0 in
19:52 65.7 °F 49.5 °F 30.2 in East 1 mph 4 mph 56 % 0 in
19:57 65.1 °F 49.5 °F 30.2 in Calm   4 mph 57 % 0 in
20:02 64.8 °F 49.6 °F 30.2 in Calm   4 mph 58 % 0 in
20:12 63.9 °F 49.6 °F 30.2 in Calm   2 mph 60 % 0 in
20:17 63.7 °F 50 °F 30.2 in Calm   1 mph 61 % 0 in
20:22 63.1 °F 49.5 °F 30.2 in Calm   1 mph 61 % 0 in
20:32 62.1 °F 49.8 °F 30.2 in Calm   1 mph 64 % 0 in
20:37 61.5 °F 49.6 °F 30.2 in Calm   1 mph 65 % 0 in
20:42 61.2 °F 49.6 °F 30.2 in Calm   1 mph 66 % 0 in
20:52 60.4 °F 49.5 °F 30.2 in Calm   1 mph 67 % 0 in
21:02 59.2 °F 49.8 °F 30.2 in Calm   1 mph 71 % 0 in
21:12 58.6 °F 49.6 °F 30.2 in Calm   1 mph 72 % 0 in
21:17 58.8 °F 49.5 °F 30.2 in Calm     71 % 0 in
21:22 59 °F 50 °F 30.2 in Calm     72 % 0 in
21:32 58.5 °F 49.5 °F 30.2 in Calm     72 % 0 in
21:42 57.4 °F 49.8 °F 30.2 in WNW 1 mph   76 % 0 in
21:52 56.7 °F 49.5 °F 30.2 in North 1 mph 2 mph 77 % 0 in
21:57 57.2 °F 50.4 °F 30.2 in Calm   2 mph 78 % 0 in
22:02 57.4 °F 50.5 °F 30.2 in Calm   2 mph 78 % 0 in
22:07 57.4 °F 50.2 °F 30.2 in Calm   2 mph 77 % 0 in
22:12 57 °F 50.2 °F 30.2 in Calm   2 mph 78 % 0 in
22:17 56.7 °F 49.8 °F 30.2 in Calm     78 % 0 in
22:22 56.5 °F 50 °F 30.2 in Calm   1 mph 79 % 0 in
22:27 56.5 °F 50 °F 30.2 in Calm   1 mph 79 % 0 in
22:32 56.5 °F 50.4 °F 30.2 in Calm   1 mph 80 % 0 in
22:37 56.5 °F 50.4 °F 30.2 in Calm   1 mph 80 % 0 in
22:47 56.3 °F 50.9 °F 30.2 in Calm   1 mph 82 % 0 in
22:52 56.3 °F 50.9 °F 30.2 in Calm   1 mph 82 % 0 in
22:57 56.1 °F 50.7 °F 30.2 in Calm     82 % 0 in
23:02 56.1 °F 50.7 °F 30.2 in Calm     82 % 0 in
23:07 56.1 °F 51.1 °F 30.2 in Calm     83 % 0 in
23:12 56.3 °F 51.3 °F 30.2 in Calm     83 % 0 in
23:17 56.1 °F 50.7 °F 30.2 in Calm     82 % 0 in
23:22 55.9 °F 50.5 °F 30.2 in Calm     82 % 0 in
23:27 55.6 °F 50.5 °F 30.2 in Calm     83 % 0 in
23:32 55.6 °F 50.5 °F 30.2 in Calm     83 % 0 in
23:37 55.6 °F 50.5 °F 30.2 in Calm     83 % 0 in
23:42 55.8 °F 50.7 °F 30.2 in Calm     83 % 0 in
23:47 55.6 °F 50.9 °F 30.2 in Calm     84 % 0 in
23:52 55.8 °F 51.1 °F 30.2 in Calm     84 % 0 in
23:57 55.8 °F 50.7 °F 30.2 in Calm     83 % 0 in
Meteo18
Compliments of Weather Underground - 4 mb

Script developed by  Jim McMurry - jmcmurry@mwt.net Adapted for the template by  Wim van der Kuil - Leuven-Template.eu

You find our weather info also at:

European Weather Network

Weather Underground

Equipment we use:

Weather-station
Davis Vue

Weather-program
Meteohub

Weather-server
Raspberry PI 2 B+

Provider
1 and 1

Davis Vue

Meteohub

Raspberry PI 2 B+

1 and 1